sensor_id;sensor_type;location;lat;lon;timestamp;P1;durP1;ratioP1;P2;durP2;ratioP2
9449;SDS011;4763;48.370;10.874;2022-10-18T01:22:12;7.07;;;3.87;;
9449;SDS011;4763;48.370;10.874;2022-10-18T01:24:51;6.03;;;3.77;;
9449;SDS011;4763;48.370;10.874;2022-10-18T01:27:32;5.70;;;3.83;;
9449;SDS011;4763;48.370;10.874;2022-10-18T01:30:17;6.57;;;3.90;;
9449;SDS011;4763;48.370;10.874;2022-10-18T01:33:04;7.43;;;4.00;;
9449;SDS011;4763;48.370;10.874;2022-10-18T01:35:38;6.37;;;4.27;;
9449;SDS011;4763;48.370;10.874;2022-10-18T01:38:08;6.93;;;4.40;;
9449;SDS011;4763;48.370;10.874;2022-10-18T01:40:38;7.50;;;4.17;;
9449;SDS011;4763;48.370;10.874;2022-10-18T01:43:07;6.40;;;4.40;;
9449;SDS011;4763;48.370;10.874;2022-10-18T01:45:36;7.40;;;4.20;;
9449;SDS011;4763;48.370;10.874;2022-10-18T01:48:04;5.30;;;3.90;;
9449;SDS011;4763;48.370;10.874;2022-10-18T01:50:32;3.93;;;3.53;;
9449;SDS011;4763;48.370;10.874;2022-10-18T01:53:00;5.37;;;3.67;;
9449;SDS011;4763;48.370;10.874;2022-10-18T01:55:29;4.83;;;3.40;;
9449;SDS011;4763;48.370;10.874;2022-10-18T01:58:02;6.87;;;4.10;;
9449;SDS011;4763;48.370;10.874;2022-10-18T02:00:42;4.13;;;3.53;;
9449;SDS011;4763;48.370;10.874;2022-10-18T02:03:12;6.27;;;3.70;;
9449;SDS011;4763;48.370;10.874;2022-10-18T02:05:43;4.50;;;3.50;;
9449;SDS011;4763;48.370;10.874;2022-10-18T02:08:16;5.83;;;3.50;;
9449;SDS011;4763;48.370;10.874;2022-10-18T02:10:50;3.73;;;3.27;;
9449;SDS011;4763;48.370;10.874;2022-10-18T02:13:20;4.27;;;3.43;;
9449;SDS011;4763;48.370;10.874;2022-10-18T02:15:57;5.17;;;3.37;;
9449;SDS011;4763;48.370;10.874;2022-10-18T02:18:29;5.97;;;3.20;;
9449;SDS011;4763;48.370;10.874;2022-10-18T02:21:02;3.60;;;3.13;;
9449;SDS011;4763;48.370;10.874;2022-10-18T02:23:30;5.27;;;3.60;;
9449;SDS011;4763;48.370;10.874;2022-10-18T02:25:58;5.47;;;3.90;;
9449;SDS011;4763;48.370;10.874;2022-10-18T02:28:26;4.00;;;3.40;;
9449;SDS011;4763;48.370;10.874;2022-10-18T02:30:56;4.30;;;3.47;;
9449;SDS011;4763;48.370;10.874;2022-10-18T02:33:31;8.07;;;3.53;;
9449;SDS011;4763;48.370;10.874;2022-10-18T02:36:04;6.20;;;3.80;;
9449;SDS011;4763;48.370;10.874;2022-10-18T02:38:36;7.23;;;3.50;;
9449;SDS011;4763;48.370;10.874;2022-10-18T02:41:05;5.77;;;3.83;;
9449;SDS011;4763;48.370;10.874;2022-10-18T02:43:32;8.60;;;4.30;;
9449;SDS011;4763;48.370;10.874;2022-10-18T02:46:01;4.83;;;3.73;;
9449;SDS011;4763;48.370;10.874;2022-10-18T02:48:28;8.00;;;3.90;;
9449;SDS011;4763;48.370;10.874;2022-10-18T02:50:55;7.17;;;3.63;;
9449;SDS011;4763;48.370;10.874;2022-10-18T02:53:21;4.00;;;3.20;;
9449;SDS011;4763;48.370;10.874;2022-10-18T02:55:48;11.17;;;3.80;;
9449;SDS011;4763;48.370;10.874;2022-10-18T02:58:15;7.00;;;4.13;;
9449;SDS011;4763;48.370;10.874;2022-10-18T03:00:42;5.97;;;3.77;;
9449;SDS011;4763;48.370;10.874;2022-10-18T03:03:10;6.43;;;4.77;;
9449;SDS011;4763;48.370;10.874;2022-10-18T03:05:37;6.27;;;3.87;;
9449;SDS011;4763;48.370;10.874;2022-10-18T03:08:04;7.00;;;3.47;;
9449;SDS011;4763;48.370;10.874;2022-10-18T03:10:30;6.53;;;4.27;;
9449;SDS011;4763;48.370;10.874;2022-10-18T03:12:57;5.77;;;3.83;;
9449;SDS011;4763;48.370;10.874;2022-10-18T03:15:24;8.80;;;4.40;;
9449;SDS011;4763;48.370;10.874;2022-10-18T03:17:51;3.67;;;3.27;;
9449;SDS011;4763;48.370;10.874;2022-10-18T03:20:19;5.10;;;3.67;;
9449;SDS011;4763;48.370;10.874;2022-10-18T03:22:46;4.70;;;3.43;;
9449;SDS011;4763;48.370;10.874;2022-10-18T03:25:12;7.47;;;2.97;;
9449;SDS011;4763;48.370;10.874;2022-10-18T03:27:39;4.33;;;3.40;;
9449;SDS011;4763;48.370;10.874;2022-10-18T03:30:06;5.93;;;3.80;;
9449;SDS011;4763;48.370;10.874;2022-10-18T03:32:35;6.50;;;3.37;;
9449;SDS011;4763;48.370;10.874;2022-10-18T03:35:02;6.23;;;3.70;;
9449;SDS011;4763;48.370;10.874;2022-10-18T03:37:31;7.60;;;3.63;;
9449;SDS011;4763;48.370;10.874;2022-10-18T03:39:57;4.43;;;3.63;;
9449;SDS011;4763;48.370;10.874;2022-10-18T03:42:24;7.00;;;3.80;;
9449;SDS011;4763;48.370;10.874;2022-10-18T03:44:51;9.47;;;3.43;;
9449;SDS011;4763;48.370;10.874;2022-10-18T03:47:18;5.60;;;3.80;;
9449;SDS011;4763;48.370;10.874;2022-10-18T03:49:45;7.10;;;3.83;;
9449;SDS011;4763;48.370;10.874;2022-10-18T03:52:11;7.43;;;4.00;;
9449;SDS011;4763;48.370;10.874;2022-10-18T03:54:40;9.13;;;3.83;;
9449;SDS011;4763;48.370;10.874;2022-10-18T03:57:06;4.47;;;3.80;;
9449;SDS011;4763;48.370;10.874;2022-10-18T03:59:33;5.37;;;3.80;;
9449;SDS011;4763;48.370;10.874;2022-10-18T04:02:00;7.73;;;4.50;;
9449;SDS011;4763;48.370;10.874;2022-10-18T04:04:26;4.63;;;3.50;;
9449;SDS011;4763;48.370;10.874;2022-10-18T04:06:53;7.03;;;4.03;;
9449;SDS011;4763;48.370;10.874;2022-10-18T04:09:20;6.77;;;4.10;;
9449;SDS011;4763;48.370;10.874;2022-10-18T04:11:49;5.23;;;3.77;;
9449;SDS011;4763;48.370;10.874;2022-10-18T04:14:16;4.50;;;3.60;;
9449;SDS011;4763;48.370;10.874;2022-10-18T04:16:45;7.53;;;4.20;;
9449;SDS011;4763;48.370;10.874;2022-10-18T04:19:12;6.30;;;4.10;;
9449;SDS011;4763;48.370;10.874;2022-10-18T04:21:39;8.03;;;3.77;;
9449;SDS011;4763;48.370;10.874;2022-10-18T04:24:05;8.63;;;4.07;;
9449;SDS011;4763;48.370;10.874;2022-10-18T04:26:32;4.40;;;3.40;;
9449;SDS011;4763;48.370;10.874;2022-10-18T04:29:00;6.17;;;3.87;;
9449;SDS011;4763;48.370;10.874;2022-10-18T04:31:27;9.60;;;4.00;;
9449;SDS011;4763;48.370;10.874;2022-10-18T04:33:54;5.57;;;3.77;;
9449;SDS011;4763;48.370;10.874;2022-10-18T04:36:20;8.90;;;3.70;;
9449;SDS011;4763;48.370;10.874;2022-10-18T04:38:47;5.97;;;3.53;;
9449;SDS011;4763;48.370;10.874;2022-10-18T04:41:14;5.33;;;3.77;;
9449;SDS011;4763;48.370;10.874;2022-10-18T04:43:41;7.50;;;3.73;;
9449;SDS011;4763;48.370;10.874;2022-10-18T04:46:09;5.17;;;3.40;;
9449;SDS011;4763;48.370;10.874;2022-10-18T04:48:35;4.40;;;3.20;;
9449;SDS011;4763;48.370;10.874;2022-10-18T04:51:02;7.53;;;4.67;;
9449;SDS011;4763;48.370;10.874;2022-10-18T04:53:29;6.07;;;4.43;;
9449;SDS011;4763;48.370;10.874;2022-10-18T04:55:56;6.20;;;4.57;;
9449;SDS011;4763;48.370;10.874;2022-10-18T04:58:23;7.33;;;4.43;;
9449;SDS011;4763;48.370;10.874;2022-10-18T05:00:50;4.97;;;4.03;;
9449;SDS011;4763;48.370;10.874;2022-10-18T05:03:18;9.10;;;3.93;;
9449;SDS011;4763;48.370;10.874;2022-10-18T05:05:44;6.87;;;3.73;;
9449;SDS011;4763;48.370;10.874;2022-10-18T05:08:11;4.83;;;3.73;;
9449;SDS011;4763;48.370;10.874;2022-10-18T05:10:38;5.30;;;3.53;;
9449;SDS011;4763;48.370;10.874;2022-10-18T05:13:05;5.07;;;3.53;;
9449;SDS011;4763;48.370;10.874;2022-10-18T05:15:32;6.20;;;3.60;;
9449;SDS011;4763;48.370;10.874;2022-10-18T05:17:59;7.43;;;4.40;;
9449;SDS011;4763;48.370;10.874;2022-10-18T05:20:27;4.60;;;3.77;;
9449;SDS011;4763;48.370;10.874;2022-10-18T05:22:54;4.57;;;3.83;;
9449;SDS011;4763;48.370;10.874;2022-10-18T05:25:22;7.13;;;4.57;;
9449;SDS011;4763;48.370;10.874;2022-10-18T05:27:48;7.37;;;4.00;;
9449;SDS011;4763;48.370;10.874;2022-10-18T05:30:15;4.77;;;3.80;;
9449;SDS011;4763;48.370;10.874;2022-10-18T05:32:42;8.50;;;4.60;;
9449;SDS011;4763;48.370;10.874;2022-10-18T05:35:09;6.70;;;4.20;;
9449;SDS011;4763;48.370;10.874;2022-10-18T05:37:37;8.80;;;4.47;;
9449;SDS011;4763;48.370;10.874;2022-10-18T05:40:04;7.93;;;4.43;;
9449;SDS011;4763;48.370;10.874;2022-10-18T05:42:31;10.90;;;4.03;;
9449;SDS011;4763;48.370;10.874;2022-10-18T05:44:58;5.97;;;4.03;;
9449;SDS011;4763;48.370;10.874;2022-10-18T05:47:25;7.13;;;3.97;;
9449;SDS011;4763;48.370;10.874;2022-10-18T05:49:52;7.20;;;4.13;;
9449;SDS011;4763;48.370;10.874;2022-10-18T05:52:20;7.03;;;4.30;;
9449;SDS011;4763;48.370;10.874;2022-10-18T05:54:48;8.17;;;5.57;;
9449;SDS011;4763;48.370;10.874;2022-10-18T05:57:14;4.97;;;4.00;;
9449;SDS011;4763;48.370;10.874;2022-10-18T05:59:42;8.33;;;4.93;;
9449;SDS011;4763;48.370;10.874;2022-10-18T06:02:09;6.90;;;4.60;;
9449;SDS011;4763;48.370;10.874;2022-10-18T06:04:37;10.37;;;4.50;;
9449;SDS011;4763;48.370;10.874;2022-10-18T06:07:06;9.63;;;4.33;;
9449;SDS011;4763;48.370;10.874;2022-10-18T06:09:33;9.93;;;4.73;;
9449;SDS011;4763;48.370;10.874;2022-10-18T06:12:02;7.90;;;4.43;;
9449;SDS011;4763;48.370;10.874;2022-10-18T06:14:29;5.33;;;4.30;;
9449;SDS011;4763;48.370;10.874;2022-10-18T06:16:56;9.20;;;4.13;;
9449;SDS011;4763;48.370;10.874;2022-10-18T06:19:23;8.40;;;4.83;;
9449;SDS011;4763;48.370;10.874;2022-10-18T06:21:52;7.17;;;4.37;;
9449;SDS011;4763;48.370;10.874;2022-10-18T06:24:19;11.57;;;4.97;;
9449;SDS011;4763;48.370;10.874;2022-10-18T06:26:46;5.10;;;3.90;;
9449;SDS011;4763;48.370;10.874;2022-10-18T06:29:15;6.93;;;4.53;;
9449;SDS011;4763;48.370;10.874;2022-10-18T06:31:42;8.33;;;4.27;;
9449;SDS011;4763;48.370;10.874;2022-10-18T06:34:08;7.47;;;4.77;;
9449;SDS011;4763;48.370;10.874;2022-10-18T06:36:35;5.33;;;4.00;;
9449;SDS011;4763;48.370;10.874;2022-10-18T06:39:02;5.50;;;4.00;;
9449;SDS011;4763;48.370;10.874;2022-10-18T06:41:29;5.77;;;3.80;;
9449;SDS011;4763;48.370;10.874;2022-10-18T06:43:55;6.50;;;4.20;;
9449;SDS011;4763;48.370;10.874;2022-10-18T06:46:28;7.20;;;4.33;;
9449;SDS011;4763;48.370;10.874;2022-10-18T06:48:55;9.33;;;4.10;;
9449;SDS011;4763;48.370;10.874;2022-10-18T06:51:22;9.30;;;4.17;;
9449;SDS011;4763;48.370;10.874;2022-10-18T06:53:48;6.60;;;4.07;;
9449;SDS011;4763;48.370;10.874;2022-10-18T06:56:15;11.70;;;4.50;;
9449;SDS011;4763;48.370;10.874;2022-10-18T06:58:42;6.07;;;4.33;;
9449;SDS011;4763;48.370;10.874;2022-10-18T07:01:09;6.97;;;4.20;;
9449;SDS011;4763;48.370;10.874;2022-10-18T07:03:39;6.93;;;4.20;;
9449;SDS011;4763;48.370;10.874;2022-10-18T07:06:07;7.33;;;4.27;;
9449;SDS011;4763;48.370;10.874;2022-10-18T07:08:36;4.27;;;3.83;;
9449;SDS011;4763;48.370;10.874;2022-10-18T07:11:04;5.60;;;3.70;;
9449;SDS011;4763;48.370;10.874;2022-10-18T07:13:32;6.57;;;4.67;;
9449;SDS011;4763;48.370;10.874;2022-10-18T07:16:00;6.43;;;4.20;;
9449;SDS011;4763;48.370;10.874;2022-10-18T07:18:29;7.10;;;4.50;;
9449;SDS011;4763;48.370;10.874;2022-10-18T07:21:00;5.70;;;3.97;;
9449;SDS011;4763;48.370;10.874;2022-10-18T07:23:28;8.90;;;4.53;;
9449;SDS011;4763;48.370;10.874;2022-10-18T07:25:57;7.07;;;4.50;;
9449;SDS011;4763;48.370;10.874;2022-10-18T07:28:24;7.83;;;4.30;;
9449;SDS011;4763;48.370;10.874;2022-10-18T07:30:51;5.63;;;3.67;;
9449;SDS011;4763;48.370;10.874;2022-10-18T07:33:18;5.20;;;4.17;;
9449;SDS011;4763;48.370;10.874;2022-10-18T07:35:45;5.90;;;3.97;;
9449;SDS011;4763;48.370;10.874;2022-10-18T07:38:14;5.97;;;4.50;;
9449;SDS011;4763;48.370;10.874;2022-10-18T07:40:40;7.27;;;4.23;;
9449;SDS011;4763;48.370;10.874;2022-10-18T07:43:07;7.77;;;3.50;;
9449;SDS011;4763;48.370;10.874;2022-10-18T07:45:34;11.50;;;3.80;;
9449;SDS011;4763;48.370;10.874;2022-10-18T07:48:01;4.70;;;3.70;;
9449;SDS011;4763;48.370;10.874;2022-10-18T07:50:28;6.87;;;3.93;;
9449;SDS011;4763;48.370;10.874;2022-10-18T07:52:54;5.40;;;3.93;;
9449;SDS011;4763;48.370;10.874;2022-10-18T07:55:22;6.80;;;4.17;;
9449;SDS011;4763;48.370;10.874;2022-10-18T07:57:49;5.97;;;3.70;;
9449;SDS011;4763;48.370;10.874;2022-10-18T08:00:16;6.80;;;4.13;;
9449;SDS011;4763;48.370;10.874;2022-10-18T08:02:43;7.43;;;4.23;;
9449;SDS011;4763;48.370;10.874;2022-10-18T08:05:10;5.10;;;3.47;;
9449;SDS011;4763;48.370;10.874;2022-10-18T08:07:37;9.60;;;3.83;;
9449;SDS011;4763;48.370;10.874;2022-10-18T08:10:04;4.70;;;3.30;;
9449;SDS011;4763;48.370;10.874;2022-10-18T08:12:34;4.87;;;3.37;;
9449;SDS011;4763;48.370;10.874;2022-10-18T08:15:00;5.63;;;3.90;;
9449;SDS011;4763;48.370;10.874;2022-10-18T08:17:27;4.80;;;3.83;;
9449;SDS011;4763;48.370;10.874;2022-10-18T08:19:54;7.97;;;4.23;;
9449;SDS011;4763;48.370;10.874;2022-10-18T08:22:21;8.67;;;4.23;;
9449;SDS011;4763;48.370;10.874;2022-10-18T08:24:48;8.47;;;4.10;;
9449;SDS011;4763;48.370;10.874;2022-10-18T08:27:15;10.00;;;4.47;;
9449;SDS011;4763;48.370;10.874;2022-10-18T08:29:43;8.37;;;3.73;;
9449;SDS011;4763;48.370;10.874;2022-10-18T08:32:10;12.87;;;6.47;;
9449;SDS011;4763;48.370;10.874;2022-10-18T08:34:50;7.27;;;4.30;;
9449;SDS011;4763;48.370;10.874;2022-10-18T08:37:17;4.73;;;3.83;;
9449;SDS011;4763;48.370;10.874;2022-10-18T08:39:44;6.17;;;3.60;;
9449;SDS011;4763;48.370;10.874;2022-10-18T08:42:14;6.53;;;3.80;;
9449;SDS011;4763;48.370;10.874;2022-10-18T08:44:50;8.53;;;4.13;;
9449;SDS011;4763;48.370;10.874;2022-10-18T08:47:18;5.47;;;3.80;;
9449;SDS011;4763;48.370;10.874;2022-10-18T08:49:48;10.00;;;4.07;;
9449;SDS011;4763;48.370;10.874;2022-10-18T08:52:21;6.43;;;3.27;;
9449;SDS011;4763;48.370;10.874;2022-10-18T08:54:58;4.20;;;3.57;;
9449;SDS011;4763;48.370;10.874;2022-10-18T08:57:28;4.57;;;3.17;;
9449;SDS011;4763;48.370;10.874;2022-10-18T08:59:57;5.70;;;3.40;;
9449;SDS011;4763;48.370;10.874;2022-10-18T09:02:31;4.50;;;3.27;;
9449;SDS011;4763;48.370;10.874;2022-10-18T09:05:15;10.13;;;3.40;;
9449;SDS011;4763;48.370;10.874;2022-10-18T09:11:23;5.40;;;2.73;;
9449;SDS011;4763;48.370;10.874;2022-10-18T09:14:05;3.93;;;2.73;;
9449;SDS011;4763;48.370;10.874;2022-10-18T09:20:46;4.57;;;3.40;;
9449;SDS011;4763;48.370;10.874;2022-10-18T09:23:29;4.05;;;2.72;;
9449;SDS011;4763;48.370;10.874;2022-10-18T09:37:26;3.83;;;3.15;;
9449;SDS011;4763;48.370;10.874;2022-10-18T09:40:31;4.45;;;2.78;;
9449;SDS011;4763;48.370;10.874;2022-10-18T09:43:38;5.22;;;3.00;;
9449;SDS011;4763;48.370;10.874;2022-10-18T09:46:41;4.35;;;2.45;;
9449;SDS011;4763;48.370;10.874;2022-10-18T09:49:55;7.43;;;2.78;;
9449;SDS011;4763;48.370;10.874;2022-10-18T09:53:00;4.95;;;3.25;;
9449;SDS011;4763;48.370;10.874;2022-10-18T09:55:41;4.00;;;2.83;;
9449;SDS011;4763;48.370;10.874;2022-10-18T10:02:35;3.10;;;2.58;;
9449;SDS011;4763;48.370;10.874;2022-10-18T10:05:17;2.90;;;2.60;;
9449;SDS011;4763;48.370;10.874;2022-10-18T10:07:46;6.15;;;2.85;;
9449;SDS011;4763;48.370;10.874;2022-10-18T10:10:33;8.27;;;3.58;;
9449;SDS011;4763;48.370;10.874;2022-10-18T10:13:05;4.25;;;2.60;;
9449;SDS011;4763;48.370;10.874;2022-10-18T10:15:44;8.70;;;3.00;;
9449;SDS011;4763;48.370;10.874;2022-10-18T10:18:18;8.52;;;3.20;;
9449;SDS011;4763;48.370;10.874;2022-10-18T10:20:47;5.30;;;2.47;;
9449;SDS011;4763;48.370;10.874;2022-10-18T10:23:18;9.35;;;2.72;;
9449;SDS011;4763;48.370;10.874;2022-10-18T10:25:50;4.63;;;2.60;;
9449;SDS011;4763;48.370;10.874;2022-10-18T10:28:19;4.88;;;2.90;;
9449;SDS011;4763;48.370;10.874;2022-10-18T10:30:48;4.45;;;2.50;;
9449;SDS011;4763;48.370;10.874;2022-10-18T10:33:28;3.88;;;2.85;;
9449;SDS011;4763;48.370;10.874;2022-10-18T10:35:59;3.78;;;2.95;;
9449;SDS011;4763;48.370;10.874;2022-10-18T10:38:28;4.68;;;3.03;;
9449;SDS011;4763;48.370;10.874;2022-10-18T10:40:57;5.63;;;2.80;;
9449;SDS011;4763;48.370;10.874;2022-10-18T10:43:25;2.70;;;2.22;;
9449;SDS011;4763;48.370;10.874;2022-10-18T10:45:58;4.05;;;2.53;;
9449;SDS011;4763;48.370;10.874;2022-10-18T10:51:12;3.38;;;2.80;;
9449;SDS011;4763;48.370;10.874;2022-10-18T10:53:41;7.65;;;2.85;;
9449;SDS011;4763;48.370;10.874;2022-10-18T10:56:17;5.15;;;2.25;;
9449;SDS011;4763;48.370;10.874;2022-10-18T10:58:48;2.42;;;1.95;;
9449;SDS011;4763;48.370;10.874;2022-10-18T11:01:21;4.90;;;1.90;;
9449;SDS011;4763;48.370;10.874;2022-10-18T11:04:00;2.95;;;1.95;;
9449;SDS011;4763;48.370;10.874;2022-10-18T11:13:11;3.72;;;2.00;;
9449;SDS011;4763;48.370;10.874;2022-10-18T11:17:10;2.25;;;2.05;;
9449;SDS011;4763;48.370;10.874;2022-10-18T11:20:26;2.78;;;1.83;;
9449;SDS011;4763;48.370;10.874;2022-10-18T11:43:35;4.78;;;2.20;;
9449;SDS011;4763;48.370;10.874;2022-10-18T11:46:58;2.15;;;1.73;;
9449;SDS011;4763;48.370;10.874;2022-10-18T11:49:57;2.65;;;1.75;;
9449;SDS011;4763;48.370;10.874;2022-10-18T11:52:35;3.97;;;2.20;;
9449;SDS011;4763;48.370;10.874;2022-10-18T11:55:18;3.70;;;1.75;;
9449;SDS011;4763;48.370;10.874;2022-10-18T11:57:58;2.83;;;1.77;;
9449;SDS011;4763;48.370;10.874;2022-10-18T12:00:39;4.63;;;2.25;;
9449;SDS011;4763;48.370;10.874;2022-10-18T12:03:17;3.83;;;1.70;;
9449;SDS011;4763;48.370;10.874;2022-10-18T12:05:50;6.82;;;2.10;;
9449;SDS011;4763;48.370;10.874;2022-10-18T12:08:22;7.10;;;2.28;;
9449;SDS011;4763;48.370;10.874;2022-10-18T12:10:54;2.60;;;1.77;;
9449;SDS011;4763;48.370;10.874;2022-10-18T12:13:24;2.72;;;2.13;;
9449;SDS011;4763;48.370;10.874;2022-10-18T12:15:55;3.72;;;1.83;;
9449;SDS011;4763;48.370;10.874;2022-10-18T12:18:26;5.57;;;1.80;;
9449;SDS011;4763;48.370;10.874;2022-10-18T12:21:04;2.05;;;1.70;;
9449;SDS011;4763;48.370;10.874;2022-10-18T12:23:57;3.78;;;1.60;;
9449;SDS011;4763;48.370;10.874;2022-10-18T12:27:00;5.15;;;2.17;;
9449;SDS011;4763;48.370;10.874;2022-10-18T12:29:46;3.85;;;1.63;;
9449;SDS011;4763;48.370;10.874;2022-10-18T12:32:19;4.05;;;2.33;;
9449;SDS011;4763;48.370;10.874;2022-10-18T12:34:52;3.38;;;1.95;;
9449;SDS011;4763;48.370;10.874;2022-10-18T12:40:15;4.90;;;2.25;;
9449;SDS011;4763;48.370;10.874;2022-10-18T12:42:46;3.17;;;1.73;;
9449;SDS011;4763;48.370;10.874;2022-10-18T12:45:25;4.13;;;1.98;;
9449;SDS011;4763;48.370;10.874;2022-10-18T12:47:55;3.83;;;1.50;;
9449;SDS011;4763;48.370;10.874;2022-10-18T12:50:28;4.68;;;2.33;;
9449;SDS011;4763;48.370;10.874;2022-10-18T12:53:18;7.85;;;2.08;;
9449;SDS011;4763;48.370;10.874;2022-10-18T12:55:50;2.70;;;1.48;;
9449;SDS011;4763;48.370;10.874;2022-10-18T13:01:03;3.55;;;1.98;;
9449;SDS011;4763;48.370;10.874;2022-10-18T13:03:49;3.63;;;2.03;;
9449;SDS011;4763;48.370;10.874;2022-10-18T13:06:21;2.60;;;1.80;;
9449;SDS011;4763;48.370;10.874;2022-10-18T13:11:43;2.85;;;1.58;;
9449;SDS011;4763;48.370;10.874;2022-10-18T13:17:19;4.53;;;1.90;;
9449;SDS011;4763;48.370;10.874;2022-10-18T13:19:55;2.60;;;2.08;;
9449;SDS011;4763;48.370;10.874;2022-10-18T13:22:43;2.47;;;1.70;;
9449;SDS011;4763;48.370;10.874;2022-10-18T13:25:19;6.20;;;2.10;;
9449;SDS011;4763;48.370;10.874;2022-10-18T13:27:53;3.13;;;2.10;;
9449;SDS011;4763;48.370;10.874;2022-10-18T13:30:26;5.57;;;1.88;;
9449;SDS011;4763;48.370;10.874;2022-10-18T13:33:00;3.70;;;2.28;;
9449;SDS011;4763;48.370;10.874;2022-10-18T13:35:52;8.93;;;2.10;;
9449;SDS011;4763;48.370;10.874;2022-10-18T13:38:34;3.15;;;1.80;;
9449;SDS011;4763;48.370;10.874;2022-10-18T13:41:05;6.18;;;2.10;;
9449;SDS011;4763;48.370;10.874;2022-10-18T13:46:21;3.70;;;1.75;;
9449;SDS011;4763;48.370;10.874;2022-10-18T13:48:49;6.55;;;2.17;;
9449;SDS011;4763;48.370;10.874;2022-10-18T13:57:16;3.90;;;1.40;;
9449;SDS011;4763;48.370;10.874;2022-10-18T14:00:03;7.00;;;2.85;;
9449;SDS011;4763;48.370;10.874;2022-10-18T14:02:49;4.93;;;2.17;;
9449;SDS011;4763;48.370;10.874;2022-10-18T14:05:35;3.10;;;2.10;;
9449;SDS011;4763;48.370;10.874;2022-10-18T14:08:14;7.57;;;2.60;;
9449;SDS011;4763;48.370;10.874;2022-10-18T14:10:48;3.53;;;2.33;;
9449;SDS011;4763;48.370;10.874;2022-10-18T14:13:23;3.85;;;2.58;;
9449;SDS011;4763;48.370;10.874;2022-10-18T14:15:55;7.78;;;3.00;;
9449;SDS011;4763;48.370;10.874;2022-10-18T14:18:29;3.78;;;2.75;;
9449;SDS011;4763;48.370;10.874;2022-10-18T14:20:58;8.50;;;3.13;;
9449;SDS011;4763;48.370;10.874;2022-10-18T14:23:30;9.55;;;3.00;;
9449;SDS011;4763;48.370;10.874;2022-10-18T14:26:06;8.85;;;2.83;;
9449;SDS011;4763;48.370;10.874;2022-10-18T14:28:37;4.95;;;2.97;;
9449;SDS011;4763;48.370;10.874;2022-10-18T14:31:11;12.63;;;2.85;;
9449;SDS011;4763;48.370;10.874;2022-10-18T14:33:40;7.57;;;3.08;;
9449;SDS011;4763;48.370;10.874;2022-10-18T14:36:10;7.20;;;3.00;;
9449;SDS011;4763;48.370;10.874;2022-10-18T14:38:43;7.35;;;2.95;;
9449;SDS011;4763;48.370;10.874;2022-10-18T14:41:15;7.53;;;3.35;;
9449;SDS011;4763;48.370;10.874;2022-10-18T14:43:45;5.70;;;3.17;;
9449;SDS011;4763;48.370;10.874;2022-10-18T14:46:17;5.65;;;3.10;;
9449;SDS011;4763;48.370;10.874;2022-10-18T14:48:55;11.70;;;3.08;;
9449;SDS011;4763;48.370;10.874;2022-10-18T14:51:26;8.18;;;3.55;;
9449;SDS011;4763;48.370;10.874;2022-10-18T14:53:55;3.42;;;2.50;;
9449;SDS011;4763;48.370;10.874;2022-10-18T14:56:24;8.27;;;3.08;;
9449;SDS011;4763;48.370;10.874;2022-10-18T14:58:52;5.45;;;2.95;;
9449;SDS011;4763;48.370;10.874;2022-10-18T15:01:22;4.53;;;2.95;;
9449;SDS011;4763;48.370;10.874;2022-10-18T15:03:54;4.05;;;3.17;;
9449;SDS011;4763;48.370;10.874;2022-10-18T15:06:23;4.38;;;3.10;;
9449;SDS011;4763;48.370;10.874;2022-10-18T15:08:51;5.95;;;3.33;;
9449;SDS011;4763;48.370;10.874;2022-10-18T15:11:20;4.38;;;2.95;;
9449;SDS011;4763;48.370;10.874;2022-10-18T15:13:49;8.48;;;3.88;;
9449;SDS011;4763;48.370;10.874;2022-10-18T15:16:19;8.55;;;3.25;;
9449;SDS011;4763;48.370;10.874;2022-10-18T15:18:59;8.32;;;2.90;;
9449;SDS011;4763;48.370;10.874;2022-10-18T15:21:28;6.05;;;3.00;;
9449;SDS011;4763;48.370;10.874;2022-10-18T15:24:09;5.03;;;3.30;;
9449;SDS011;4763;48.370;10.874;2022-10-18T15:26:45;5.57;;;3.30;;
9449;SDS011;4763;48.370;10.874;2022-10-18T15:29:16;4.50;;;3.63;;
9449;SDS011;4763;48.370;10.874;2022-10-18T15:31:44;7.05;;;3.88;;
9449;SDS011;4763;48.370;10.874;2022-10-18T15:34:14;7.60;;;4.07;;
9449;SDS011;4763;48.370;10.874;2022-10-18T15:36:43;8.43;;;4.15;;
9449;SDS011;4763;48.370;10.874;2022-10-18T15:39:13;8.32;;;4.15;;
9449;SDS011;4763;48.370;10.874;2022-10-18T15:41:43;8.95;;;4.65;;
9449;SDS011;4763;48.370;10.874;2022-10-18T15:44:25;8.85;;;4.40;;
9449;SDS011;4763;48.370;10.874;2022-10-18T15:47:07;8.77;;;4.03;;
9449;SDS011;4763;48.370;10.874;2022-10-18T15:49:49;6.93;;;4.28;;
9449;SDS011;4763;48.370;10.874;2022-10-18T15:52:27;5.88;;;4.18;;
9449;SDS011;4763;48.370;10.874;2022-10-18T15:54:58;4.55;;;3.50;;
9449;SDS011;4763;48.370;10.874;2022-10-18T15:57:28;6.50;;;3.78;;
9449;SDS011;4763;48.370;10.874;2022-10-18T15:59:58;8.70;;;3.72;;
9449;SDS011;4763;48.370;10.874;2022-10-18T16:02:32;4.28;;;3.40;;
9449;SDS011;4763;48.370;10.874;2022-10-18T16:04:59;6.28;;;3.45;;
9449;SDS011;4763;48.370;10.874;2022-10-18T16:07:27;6.90;;;4.00;;
9449;SDS011;4763;48.370;10.874;2022-10-18T16:09:54;11.55;;;5.13;;
9449;SDS011;4763;48.370;10.874;2022-10-18T16:12:21;4.32;;;3.22;;
9449;SDS011;4763;48.370;10.874;2022-10-18T16:14:48;5.35;;;3.88;;
9449;SDS011;4763;48.370;10.874;2022-10-18T16:17:16;5.30;;;3.50;;
9449;SDS011;4763;48.370;10.874;2022-10-18T16:19:43;6.88;;;3.67;;
9449;SDS011;4763;48.370;10.874;2022-10-18T16:22:10;5.35;;;2.95;;
9449;SDS011;4763;48.370;10.874;2022-10-18T16:24:37;3.97;;;3.08;;
9449;SDS011;4763;48.370;10.874;2022-10-18T16:27:04;4.10;;;3.08;;
9449;SDS011;4763;48.370;10.874;2022-10-18T16:29:31;6.68;;;3.60;;
9449;SDS011;4763;48.370;10.874;2022-10-18T16:31:58;7.00;;;3.58;;
9449;SDS011;4763;48.370;10.874;2022-10-18T16:34:26;6.15;;;3.13;;
9449;SDS011;4763;48.370;10.874;2022-10-18T16:36:56;6.35;;;3.60;;
9449;SDS011;4763;48.370;10.874;2022-10-18T16:39:46;8.20;;;3.88;;
9449;SDS011;4763;48.370;10.874;2022-10-18T16:45:51;4.43;;;3.20;;
9449;SDS011;4763;48.370;10.874;2022-10-18T16:48:20;11.13;;;3.92;;
9449;SDS011;4763;48.370;10.874;2022-10-18T16:50:49;4.80;;;3.67;;
9449;SDS011;4763;48.370;10.874;2022-10-18T16:53:17;8.90;;;4.07;;
9449;SDS011;4763;48.370;10.874;2022-10-18T16:55:49;4.85;;;3.67;;
9449;SDS011;4763;48.370;10.874;2022-10-18T16:58:17;6.78;;;3.88;;
9449;SDS011;4763;48.370;10.874;2022-10-18T17:00:43;8.40;;;4.50;;
9449;SDS011;4763;48.370;10.874;2022-10-18T17:03:11;6.97;;;3.67;;
9449;SDS011;4763;48.370;10.874;2022-10-18T17:05:37;7.93;;;3.73;;
9449;SDS011;4763;48.370;10.874;2022-10-18T17:08:06;5.50;;;3.85;;
9449;SDS011;4763;48.370;10.874;2022-10-18T17:10:33;5.83;;;3.90;;
9449;SDS011;4763;48.370;10.874;2022-10-18T17:13:00;6.20;;;3.70;;
9449;SDS011;4763;48.370;10.874;2022-10-18T17:15:26;6.80;;;3.77;;
9449;SDS011;4763;48.370;10.874;2022-10-18T17:17:54;5.93;;;3.53;;
9449;SDS011;4763;48.370;10.874;2022-10-18T17:20:21;6.33;;;3.40;;
9449;SDS011;4763;48.370;10.874;2022-10-18T17:22:50;4.97;;;3.20;;
9449;SDS011;4763;48.370;10.874;2022-10-18T17:25:18;4.47;;;3.27;;
9449;SDS011;4763;48.370;10.874;2022-10-18T17:27:45;6.77;;;3.67;;
9449;SDS011;4763;48.370;10.874;2022-10-18T17:30:12;5.93;;;3.37;;
9449;SDS011;4763;48.370;10.874;2022-10-18T17:32:41;4.07;;;3.07;;
9449;SDS011;4763;48.370;10.874;2022-10-18T17:35:09;4.18;;;3.30;;
9449;SDS011;4763;48.370;10.874;2022-10-18T17:37:36;4.90;;;3.13;;
9449;SDS011;4763;48.370;10.874;2022-10-18T17:40:03;6.20;;;2.73;;
9449;SDS011;4763;48.370;10.874;2022-10-18T17:42:32;6.20;;;3.40;;
9449;SDS011;4763;48.370;10.874;2022-10-18T17:44:59;5.03;;;3.23;;
9449;SDS011;4763;48.370;10.874;2022-10-18T17:47:26;7.27;;;4.13;;
9449;SDS011;4763;48.370;10.874;2022-10-18T17:49:53;6.90;;;4.90;;
9449;SDS011;4763;48.370;10.874;2022-10-18T17:52:20;13.23;;;7.20;;
9449;SDS011;4763;48.370;10.874;2022-10-18T17:54:46;6.03;;;3.47;;
9449;SDS011;4763;48.370;10.874;2022-10-18T17:57:13;5.07;;;3.27;;
9449;SDS011;4763;48.370;10.874;2022-10-18T17:59:41;5.43;;;3.53;;
9449;SDS011;4763;48.370;10.874;2022-10-18T18:02:08;5.10;;;3.10;;
9449;SDS011;4763;48.370;10.874;2022-10-18T18:04:36;5.27;;;3.30;;